sensor_id;sensor_type;location;lat;lon;timestamp;temperature;humidity
1301;DHT22;59099;48.806;9.160;2022-09-13T00:00:58;14.60;99.90
1301;DHT22;59099;48.806;9.160;2022-09-13T00:03:25;14.50;99.90
1301;DHT22;59099;48.806;9.160;2022-09-13T00:05:50;14.50;99.90
1301;DHT22;59099;48.806;9.160;2022-09-13T00:08:16;14.60;99.90
1301;DHT22;59099;48.806;9.160;2022-09-13T00:10:43;14.70;99.90
1301;DHT22;59099;48.806;9.160;2022-09-13T00:13:11;14.60;99.90
1301;DHT22;59099;48.806;9.160;2022-09-13T00:15:42;14.50;99.90
1301;DHT22;59099;48.806;9.160;2022-09-13T00:18:08;14.50;99.90
1301;DHT22;59099;48.806;9.160;2022-09-13T00:20:34;14.50;99.90
1301;DHT22;59099;48.806;9.160;2022-09-13T00:23:00;14.40;99.90
1301;DHT22;59099;48.806;9.160;2022-09-13T00:25:25;14.40;99.90
1301;DHT22;59099;48.806;9.160;2022-09-13T00:27:51;14.30;99.90
1301;DHT22;59099;48.806;9.160;2022-09-13T00:30:17;14.30;99.90
1301;DHT22;59099;48.806;9.160;2022-09-13T00:32:43;14.30;99.90
1301;DHT22;59099;48.806;9.160;2022-09-13T00:35:08;14.30;99.90
1301;DHT22;59099;48.806;9.160;2022-09-13T00:37:34;14.20;99.90
1301;DHT22;59099;48.806;9.160;2022-09-13T00:40:01;14.30;99.90
1301;DHT22;59099;48.806;9.160;2022-09-13T00:42:29;14.30;99.90
1301;DHT22;59099;48.806;9.160;2022-09-13T00:48:00;14.20;99.90
1301;DHT22;59099;48.806;9.160;2022-09-13T00:53:29;14.00;99.90
1301;DHT22;59099;48.806;9.160;2022-09-13T00:56:17;14.00;99.90
1301;DHT22;59099;48.806;9.160;2022-09-13T00:58:59;14.00;99.90
1301;DHT22;59099;48.806;9.160;2022-09-13T01:01:31;13.90;99.90
1301;DHT22;59099;48.806;9.160;2022-09-13T01:03:59;13.80;99.90
1301;DHT22;59099;48.806;9.160;2022-09-13T01:06:28;13.80;99.90
1301;DHT22;59099;48.806;9.160;2022-09-13T01:08:58;13.80;99.90
1301;DHT22;59099;48.806;9.160;2022-09-13T01:11:41;13.80;99.90
1301;DHT22;59099;48.806;9.160;2022-09-13T01:14:10;14.00;99.90
1301;DHT22;59099;48.806;9.160;2022-09-13T01:16:38;14.10;99.90
1301;DHT22;59099;48.806;9.160;2022-09-13T01:19:04;14.00;99.90
1301;DHT22;59099;48.806;9.160;2022-09-13T01:43:59;13.80;99.90
1301;DHT22;59099;48.806;9.160;2022-09-13T01:58:19;13.60;99.90
1301;DHT22;59099;48.806;9.160;2022-09-13T02:01:05;13.60;99.90
1301;DHT22;59099;48.806;9.160;2022-09-13T02:03:37;13.60;99.90
1301;DHT22;59099;48.806;9.160;2022-09-13T02:06:09;13.50;99.90
1301;DHT22;59099;48.806;9.160;2022-09-13T02:09:13;13.50;99.90
1301;DHT22;59099;48.806;9.160;2022-09-13T02:11:41;13.50;99.90
1301;DHT22;59099;48.806;9.160;2022-09-13T02:14:20;13.40;99.90
1301;DHT22;59099;48.806;9.160;2022-09-13T02:16:53;13.30;99.90
1301;DHT22;59099;48.806;9.160;2022-09-13T02:21:59;13.40;99.90
1301;DHT22;59099;48.806;9.160;2022-09-13T02:24:34;13.40;99.90
1301;DHT22;59099;48.806;9.160;2022-09-13T02:27:09;13.40;99.90
1301;DHT22;59099;48.806;9.160;2022-09-13T02:29:39;13.40;99.90
1301;DHT22;59099;48.806;9.160;2022-09-13T02:34:42;13.30;99.90
1301;DHT22;59099;48.806;9.160;2022-09-13T02:37:11;13.30;99.90
1301;DHT22;59099;48.806;9.160;2022-09-13T02:39:58;13.20;99.90
1301;DHT22;59099;48.806;9.160;2022-09-13T02:42:41;13.20;99.90
1301;DHT22;59099;48.806;9.160;2022-09-13T02:45:13;13.20;99.90
1301;DHT22;59099;48.806;9.160;2022-09-13T02:54:29;13.00;99.90
1301;DHT22;59099;48.806;9.160;2022-09-13T02:57:13;13.10;99.90
1301;DHT22;59099;48.806;9.160;2022-09-13T02:59:41;13.10;99.90
1301;DHT22;59099;48.806;9.160;2022-09-13T03:02:15;13.10;99.90
1301;DHT22;59099;48.806;9.160;2022-09-13T03:04:43;13.10;99.90
1301;DHT22;59099;48.806;9.160;2022-09-13T03:07:13;13.10;99.90
1301;DHT22;59099;48.806;9.160;2022-09-13T03:09:44;13.20;99.90
1301;DHT22;59099;48.806;9.160;2022-09-13T03:20:13;13.10;99.90
1301;DHT22;59099;48.806;9.160;2022-09-13T03:23:13;13.10;99.90
1301;DHT22;59099;48.806;9.160;2022-09-13T03:31:24;13.00;99.90
1301;DHT22;59099;48.806;9.160;2022-09-13T03:34:11;13.00;99.90
1301;DHT22;59099;48.806;9.160;2022-09-13T03:41:50;13.00;99.90
1301;DHT22;59099;48.806;9.160;2022-09-13T03:44:20;13.10;99.90
1301;DHT22;59099;48.806;9.160;2022-09-13T03:46:48;13.00;99.90
1301;DHT22;59099;48.806;9.160;2022-09-13T03:49:18;13.00;99.90
1301;DHT22;59099;48.806;9.160;2022-09-13T03:51:48;13.00;99.90
1301;DHT22;59099;48.806;9.160;2022-09-13T03:54:22;13.00;99.90
1301;DHT22;59099;48.806;9.160;2022-09-13T03:57:06;13.00;99.90
1301;DHT22;59099;48.806;9.160;2022-09-13T03:59:33;13.00;99.90
1301;DHT22;59099;48.806;9.160;2022-09-13T04:02:02;13.00;99.90
1301;DHT22;59099;48.806;9.160;2022-09-13T04:04:28;13.00;99.90
1301;DHT22;59099;48.806;9.160;2022-09-13T04:06:53;13.10;99.90
1301;DHT22;59099;48.806;9.160;2022-09-13T04:09:21;13.10;99.90
1301;DHT22;59099;48.806;9.160;2022-09-13T04:11:47;13.10;99.90
1301;DHT22;59099;48.806;9.160;2022-09-13T04:14:13;13.10;99.90
1301;DHT22;59099;48.806;9.160;2022-09-13T04:16:40;13.00;99.90
1301;DHT22;59099;48.806;9.160;2022-09-13T04:19:06;13.00;99.90
1301;DHT22;59099;48.806;9.160;2022-09-13T04:21:32;13.00;99.90
1301;DHT22;59099;48.806;9.160;2022-09-13T04:23:58;13.00;99.90
1301;DHT22;59099;48.806;9.160;2022-09-13T04:26:24;13.00;99.90
1301;DHT22;59099;48.806;9.160;2022-09-13T04:28:51;13.10;99.90
1301;DHT22;59099;48.806;9.160;2022-09-13T04:31:17;13.20;99.90
1301;DHT22;59099;48.806;9.160;2022-09-13T04:33:43;13.10;99.90
1301;DHT22;59099;48.806;9.160;2022-09-13T04:36:09;13.10;99.90
1301;DHT22;59099;48.806;9.160;2022-09-13T04:38:34;13.00;99.90
1301;DHT22;59099;48.806;9.160;2022-09-13T04:41:01;13.00;99.90
1301;DHT22;59099;48.806;9.160;2022-09-13T04:43:27;13.10;99.90
1301;DHT22;59099;48.806;9.160;2022-09-13T04:45:53;13.20;99.90
1301;DHT22;59099;48.806;9.160;2022-09-13T04:48:19;13.30;99.90
1301;DHT22;59099;48.806;9.160;2022-09-13T04:50:45;13.20;99.90
1301;DHT22;59099;48.806;9.160;2022-09-13T04:53:11;13.10;99.90
1301;DHT22;59099;48.806;9.160;2022-09-13T04:55:37;13.10;99.90
1301;DHT22;59099;48.806;9.160;2022-09-13T04:58:03;13.10;99.90
1301;DHT22;59099;48.806;9.160;2022-09-13T05:00:29;13.20;99.90
1301;DHT22;59099;48.806;9.160;2022-09-13T05:02:56;13.20;99.90
1301;DHT22;59099;48.806;9.160;2022-09-13T05:05:22;13.30;99.90
1301;DHT22;59099;48.806;9.160;2022-09-13T05:07:50;13.30;99.90
1301;DHT22;59099;48.806;9.160;2022-09-13T05:10:17;13.30;99.90
1301;DHT22;59099;48.806;9.160;2022-09-13T05:12:43;13.40;99.90
1301;DHT22;59099;48.806;9.160;2022-09-13T05:15:09;13.50;99.90
1301;DHT22;59099;48.806;9.160;2022-09-13T05:17:36;13.50;99.90
1301;DHT22;59099;48.806;9.160;2022-09-13T05:20:03;13.40;99.90
1301;DHT22;59099;48.806;9.160;2022-09-13T05:22:30;13.50;99.90
1301;DHT22;59099;48.806;9.160;2022-09-13T05:24:56;13.50;99.90
1301;DHT22;59099;48.806;9.160;2022-09-13T05:27:30;13.50;99.90
1301;DHT22;59099;48.806;9.160;2022-09-13T05:29:56;13.50;99.90
1301;DHT22;59099;48.806;9.160;2022-09-13T05:32:22;13.50;99.90
1301;DHT22;59099;48.806;9.160;2022-09-13T05:34:47;13.50;99.90
1301;DHT22;59099;48.806;9.160;2022-09-13T05:37:13;13.50;99.90
1301;DHT22;59099;48.806;9.160;2022-09-13T05:39:39;13.60;99.90
1301;DHT22;59099;48.806;9.160;2022-09-13T05:42:05;13.70;99.90
1301;DHT22;59099;48.806;9.160;2022-09-13T05:44:30;13.70;99.90
1301;DHT22;59099;48.806;9.160;2022-09-13T05:46:56;13.60;99.90
1301;DHT22;59099;48.806;9.160;2022-09-13T05:49:22;13.60;99.90
1301;DHT22;59099;48.806;9.160;2022-09-13T05:51:48;13.70;99.90
1301;DHT22;59099;48.806;9.160;2022-09-13T05:54:14;13.70;99.90
1301;DHT22;59099;48.806;9.160;2022-09-13T05:56:39;13.70;99.90
1301;DHT22;59099;48.806;9.160;2022-09-13T05:59:05;13.60;99.90
1301;DHT22;59099;48.806;9.160;2022-09-13T06:01:31;13.70;99.90
1301;DHT22;59099;48.806;9.160;2022-09-13T06:03:58;13.70;99.90
1301;DHT22;59099;48.806;9.160;2022-09-13T06:06:24;13.80;99.90
1301;DHT22;59099;48.806;9.160;2022-09-13T06:08:54;13.80;99.90
1301;DHT22;59099;48.806;9.160;2022-09-13T06:11:21;13.80;99.90
1301;DHT22;59099;48.806;9.160;2022-09-13T06:13:47;13.90;99.90
1301;DHT22;59099;48.806;9.160;2022-09-13T06:16:14;14.00;99.90
1301;DHT22;59099;48.806;9.160;2022-09-13T06:18:42;14.20;99.90
1301;DHT22;59099;48.806;9.160;2022-09-13T06:21:10;14.20;99.90
1301;DHT22;59099;48.806;9.160;2022-09-13T06:23:37;14.20;99.90
1301;DHT22;59099;48.806;9.160;2022-09-13T06:26:05;14.30;99.90
1301;DHT22;59099;48.806;9.160;2022-09-13T06:28:31;14.30;99.90
1301;DHT22;59099;48.806;9.160;2022-09-13T06:31:10;14.20;99.90
1301;DHT22;59099;48.806;9.160;2022-09-13T06:33:37;14.20;99.90
1301;DHT22;59099;48.806;9.160;2022-09-13T06:36:05;14.20;99.90
1301;DHT22;59099;48.806;9.160;2022-09-13T06:38:31;14.20;99.90
1301;DHT22;59099;48.806;9.160;2022-09-13T06:41:05;14.20;99.90
1301;DHT22;59099;48.806;9.160;2022-09-13T06:43:32;14.20;99.90
1301;DHT22;59099;48.806;9.160;2022-09-13T06:46:00;14.20;99.90
1301;DHT22;59099;48.806;9.160;2022-09-13T06:48:29;14.30;99.90
1301;DHT22;59099;48.806;9.160;2022-09-13T06:50:58;14.40;99.90
1301;DHT22;59099;48.806;9.160;2022-09-13T06:53:23;14.60;99.90
1301;DHT22;59099;48.806;9.160;2022-09-13T06:58:31;14.60;99.90
1301;DHT22;59099;48.806;9.160;2022-09-13T07:01:36;14.60;99.90
1301;DHT22;59099;48.806;9.160;2022-09-13T07:04:08;14.80;99.90
1301;DHT22;59099;48.806;9.160;2022-09-13T07:06:36;14.80;99.90
1301;DHT22;59099;48.806;9.160;2022-09-13T07:09:04;14.90;99.90
1301;DHT22;59099;48.806;9.160;2022-09-13T07:11:36;15.00;99.90
1301;DHT22;59099;48.806;9.160;2022-09-13T07:14:03;14.90;99.90
1301;DHT22;59099;48.806;9.160;2022-09-13T07:16:31;15.10;99.90
1301;DHT22;59099;48.806;9.160;2022-09-13T07:18:59;15.30;99.90
1301;DHT22;59099;48.806;9.160;2022-09-13T07:21:26;15.40;99.90
1301;DHT22;59099;48.806;9.160;2022-09-13T07:23:53;15.60;99.90
1301;DHT22;59099;48.806;9.160;2022-09-13T07:26:20;15.70;99.90
1301;DHT22;59099;48.806;9.160;2022-09-13T07:28:48;15.80;99.90
1301;DHT22;59099;48.806;9.160;2022-09-13T07:31:20;16.00;99.90
1301;DHT22;59099;48.806;9.160;2022-09-13T07:33:47;16.20;99.90
1301;DHT22;59099;48.806;9.160;2022-09-13T07:36:13;16.40;99.90
1301;DHT22;59099;48.806;9.160;2022-09-13T07:38:41;16.50;99.90
1301;DHT22;59099;48.806;9.160;2022-09-13T07:41:11;16.60;99.90
1301;DHT22;59099;48.806;9.160;2022-09-13T07:43:37;16.90;99.90
1301;DHT22;59099;48.806;9.160;2022-09-13T07:46:08;17.00;99.90
1301;DHT22;59099;48.806;9.160;2022-09-13T07:48:36;17.30;99.90
1301;DHT22;59099;48.806;9.160;2022-09-13T07:51:11;17.50;99.90
1301;DHT22;59099;48.806;9.160;2022-09-13T07:53:38;17.70;99.90
1301;DHT22;59099;48.806;9.160;2022-09-13T07:56:08;18.00;99.90
1301;DHT22;59099;48.806;9.160;2022-09-13T07:58:35;18.40;99.90
1301;DHT22;59099;48.806;9.160;2022-09-13T08:01:17;18.70;99.90
1301;DHT22;59099;48.806;9.160;2022-09-13T08:03:43;19.00;99.90
1301;DHT22;59099;48.806;9.160;2022-09-13T08:06:10;19.30;99.90
1301;DHT22;59099;48.806;9.160;2022-09-13T08:08:36;19.60;99.90
1301;DHT22;59099;48.806;9.160;2022-09-13T08:11:04;19.90;99.90
1301;DHT22;59099;48.806;9.160;2022-09-13T08:13:30;20.10;99.90
1301;DHT22;59099;48.806;9.160;2022-09-13T08:16:01;20.40;99.90
1301;DHT22;59099;48.806;9.160;2022-09-13T08:18:27;20.70;99.90
1301;DHT22;59099;48.806;9.160;2022-09-13T08:20:57;20.90;99.90
1301;DHT22;59099;48.806;9.160;2022-09-13T08:23:23;21.10;99.90
1301;DHT22;59099;48.806;9.160;2022-09-13T08:25:49;21.10;99.90
1301;DHT22;59099;48.806;9.160;2022-09-13T08:28:17;21.20;99.90
1301;DHT22;59099;48.806;9.160;2022-09-13T08:30:43;21.30;99.90
1301;DHT22;59099;48.806;9.160;2022-09-13T08:33:10;21.30;99.90
1301;DHT22;59099;48.806;9.160;2022-09-13T08:35:37;21.30;99.90
1301;DHT22;59099;48.806;9.160;2022-09-13T08:38:04;21.40;99.90
1301;DHT22;59099;48.806;9.160;2022-09-13T08:40:39;21.60;99.90
1301;DHT22;59099;48.806;9.160;2022-09-13T08:46:04;21.70;99.90
1301;DHT22;59099;48.806;9.160;2022-09-13T08:48:38;21.80;99.90
1301;DHT22;59099;48.806;9.160;2022-09-13T08:51:33;22.00;99.90
1301;DHT22;59099;48.806;9.160;2022-09-13T08:54:00;22.30;99.90
1301;DHT22;59099;48.806;9.160;2022-09-13T08:56:35;22.50;99.90
1301;DHT22;59099;48.806;9.160;2022-09-13T08:59:06;22.60;99.90
1301;DHT22;59099;48.806;9.160;2022-09-13T09:09:53;23.60;99.90
1301;DHT22;59099;48.806;9.160;2022-09-13T09:12:25;23.80;99.90
1301;DHT22;59099;48.806;9.160;2022-09-13T09:15:12;24.10;99.90
1301;DHT22;59099;48.806;9.160;2022-09-13T09:23:00;24.80;99.90
1301;DHT22;59099;48.806;9.160;2022-09-13T09:25:27;25.00;99.90
1301;DHT22;59099;48.806;9.160;2022-09-13T09:27:54;25.20;99.90
1301;DHT22;59099;48.806;9.160;2022-09-13T09:30:20;25.40;99.90
1301;DHT22;59099;48.806;9.160;2022-09-13T09:38:40;26.40;99.90
1301;DHT22;59099;48.806;9.160;2022-09-13T09:43:55;27.40;99.90
1301;DHT22;59099;48.806;9.160;2022-09-13T09:46:28;28.20;99.90
1301;DHT22;59099;48.806;9.160;2022-09-13T09:49:01;29.40;99.90
1301;DHT22;59099;48.806;9.160;2022-09-13T09:51:50;30.00;99.90
1301;DHT22;59099;48.806;9.160;2022-09-13T09:54:16;29.80;97.00
1301;DHT22;59099;48.806;9.160;2022-09-13T09:56:54;29.50;98.50
1301;DHT22;59099;48.806;9.160;2022-09-13T09:59:31;29.20;95.40
1301;DHT22;59099;48.806;9.160;2022-09-13T10:02:02;28.90;96.90
1301;DHT22;59099;48.806;9.160;2022-09-13T10:04:38;28.70;97.10
1301;DHT22;59099;48.806;9.160;2022-09-13T10:07:17;28.80;95.50
1301;DHT22;59099;48.806;9.160;2022-09-13T10:10:25;29.10;96.50
1301;DHT22;59099;48.806;9.160;2022-09-13T10:12:55;29.20;96.00
1301;DHT22;59099;48.806;9.160;2022-09-13T10:15:25;29.80;95.60
1301;DHT22;59099;48.806;9.160;2022-09-13T10:18:13;30.30;93.60
1301;DHT22;59099;48.806;9.160;2022-09-13T10:23:21;31.90;91.50
1301;DHT22;59099;48.806;9.160;2022-09-13T10:26:03;33.00;90.90
1301;DHT22;59099;48.806;9.160;2022-09-13T10:28:40;34.30;76.30
1301;DHT22;59099;48.806;9.160;2022-09-13T10:31:10;35.50;75.00
1301;DHT22;59099;48.806;9.160;2022-09-13T10:36:43;37.50;59.30
1301;DHT22;59099;48.806;9.160;2022-09-13T10:39:16;38.20;57.50
1301;DHT22;59099;48.806;9.160;2022-09-13T10:41:49;38.60;54.60
1301;DHT22;59099;48.806;9.160;2022-09-13T10:44:59;37.80;52.50
1301;DHT22;59099;48.806;9.160;2022-09-13T10:47:21;38.10;55.00
1301;DHT22;59099;48.806;9.160;2022-09-13T10:49:52;38.10;56.40
1301;DHT22;59099;48.806;9.160;2022-09-13T10:52:28;38.00;51.70
1301;DHT22;59099;48.806;9.160;2022-09-13T10:55:14;37.90;52.50
1301;DHT22;59099;48.806;9.160;2022-09-13T10:57:41;38.00;53.40
1301;DHT22;59099;48.806;9.160;2022-09-13T11:00:08;38.70;55.30
1301;DHT22;59099;48.806;9.160;2022-09-13T11:02:58;39.00;49.70
1301;DHT22;59099;48.806;9.160;2022-09-13T11:11:35;40.80;46.90
1301;DHT22;59099;48.806;9.160;2022-09-13T11:36:21;34.30;54.10
1301;DHT22;59099;48.806;9.160;2022-09-13T11:39:31;34.20;57.00
1301;DHT22;59099;48.806;9.160;2022-09-13T11:42:14;34.10;54.00
1301;DHT22;59099;48.806;9.160;2022-09-13T11:47:32;33.80;53.20
1301;DHT22;59099;48.806;9.160;2022-09-13T11:55:45;34.30;54.80
1301;DHT22;59099;48.806;9.160;2022-09-13T11:58:25;34.70;54.00
1301;DHT22;59099;48.806;9.160;2022-09-13T12:01:01;35.00;54.00
1301;DHT22;59099;48.806;9.160;2022-09-13T12:03:45;35.20;51.20
1301;DHT22;59099;48.806;9.160;2022-09-13T12:08:48;35.50;51.60
1301;DHT22;59099;48.806;9.160;2022-09-13T12:11:20;36.00;55.60
1301;DHT22;59099;48.806;9.160;2022-09-13T12:16:31;37.20;51.10
1301;DHT22;59099;48.806;9.160;2022-09-13T12:19:01;37.80;47.60
1301;DHT22;59099;48.806;9.160;2022-09-13T12:21:35;38.50;50.30
1301;DHT22;59099;48.806;9.160;2022-09-13T12:30:04;38.90;47.20
1301;DHT22;59099;48.806;9.160;2022-09-13T12:32:30;38.10;46.80
1301;DHT22;59099;48.806;9.160;2022-09-13T12:35:30;37.40;46.80
1301;DHT22;59099;48.806;9.160;2022-09-13T12:38:16;36.80;47.70
1301;DHT22;59099;48.806;9.160;2022-09-13T13:00:26;36.60;50.30
1301;DHT22;59099;48.806;9.160;2022-09-13T13:07:53;36.60;48.60
1301;DHT22;59099;48.806;9.160;2022-09-13T13:10:37;36.50;48.40
1301;DHT22;59099;48.806;9.160;2022-09-13T13:13:27;36.20;46.90
1301;DHT22;59099;48.806;9.160;2022-09-13T13:15:58;35.70;55.90
1301;DHT22;59099;48.806;9.160;2022-09-13T13:18:43;35.90;57.20
1301;DHT22;59099;48.806;9.160;2022-09-13T13:21:35;36.10;47.80
1301;DHT22;59099;48.806;9.160;2022-09-13T13:26:57;36.10;49.60
1301;DHT22;59099;48.806;9.160;2022-09-13T13:39:45;33.60;53.10
1301;DHT22;59099;48.806;9.160;2022-09-13T13:50:18;35.20;48.00
1301;DHT22;59099;48.806;9.160;2022-09-13T13:52:51;35.90;47.80
1301;DHT22;59099;48.806;9.160;2022-09-13T13:55:43;36.10;47.60
1301;DHT22;59099;48.806;9.160;2022-09-13T13:58:50;36.00;48.10
1301;DHT22;59099;48.806;9.160;2022-09-13T14:01:27;35.80;48.40
1301;DHT22;59099;48.806;9.160;2022-09-13T14:04:23;35.10;47.40
1301;DHT22;59099;48.806;9.160;2022-09-13T14:12:20;33.40;45.70
1301;DHT22;59099;48.806;9.160;2022-09-13T14:20:16;33.40;47.10
1301;DHT22;59099;48.806;9.160;2022-09-13T14:22:43;33.60;50.60
1301;DHT22;59099;48.806;9.160;2022-09-13T14:27:45;33.30;50.70
1301;DHT22;59099;48.806;9.160;2022-09-13T14:30:20;33.20;51.80
1301;DHT22;59099;48.806;9.160;2022-09-13T14:32:53;33.20;49.20
1301;DHT22;59099;48.806;9.160;2022-09-13T14:37:50;34.10;49.20
1301;DHT22;59099;48.806;9.160;2022-09-13T14:40:22;35.30;46.50
1301;DHT22;59099;48.806;9.160;2022-09-13T14:42:49;36.00;46.00
1301;DHT22;59099;48.806;9.160;2022-09-13T14:45:24;36.40;46.00
1301;DHT22;59099;48.806;9.160;2022-09-13T14:48:16;36.30;47.10
1301;DHT22;59099;48.806;9.160;2022-09-13T14:50:58;35.90;45.90
1301;DHT22;59099;48.806;9.160;2022-09-13T14:53:28;35.60;48.00
1301;DHT22;59099;48.806;9.160;2022-09-13T14:55:59;35.20;48.60
1301;DHT22;59099;48.806;9.160;2022-09-13T14:58:30;34.70;49.80
1301;DHT22;59099;48.806;9.160;2022-09-13T15:01:05;34.30;50.10
1301;DHT22;59099;48.806;9.160;2022-09-13T15:03:32;33.70;50.60
1301;DHT22;59099;48.806;9.160;2022-09-13T15:05:59;33.40;51.80
1301;DHT22;59099;48.806;9.160;2022-09-13T15:11:05;32.80;52.50
1301;DHT22;59099;48.806;9.160;2022-09-13T15:13:32;32.60;52.70
1301;DHT22;59099;48.806;9.160;2022-09-13T15:15:59;32.40;52.60
1301;DHT22;59099;48.806;9.160;2022-09-13T15:18:31;32.00;53.40
1301;DHT22;59099;48.806;9.160;2022-09-13T15:21:00;31.80;55.00
1301;DHT22;59099;48.806;9.160;2022-09-13T15:23:27;31.50;54.60
1301;DHT22;59099;48.806;9.160;2022-09-13T15:25:57;31.30;55.60
1301;DHT22;59099;48.806;9.160;2022-09-13T15:28:29;31.10;53.00
1301;DHT22;59099;48.806;9.160;2022-09-13T15:30:57;30.80;54.10
1301;DHT22;59099;48.806;9.160;2022-09-13T15:33:29;30.60;54.20
1301;DHT22;59099;48.806;9.160;2022-09-13T15:41:36;30.00;52.50
1301;DHT22;59099;48.806;9.160;2022-09-13T15:44:05;29.80;53.60
1301;DHT22;59099;48.806;9.160;2022-09-13T15:46:46;29.60;53.80
1301;DHT22;59099;48.806;9.160;2022-09-13T15:49:17;29.30;56.00
1301;DHT22;59099;48.806;9.160;2022-09-13T15:51:43;29.20;54.20
1301;DHT22;59099;48.806;9.160;2022-09-13T15:54:11;29.10;54.00
1301;DHT22;59099;48.806;9.160;2022-09-13T15:56:41;28.90;53.10
1301;DHT22;59099;48.806;9.160;2022-09-13T15:59:13;28.80;54.30
1301;DHT22;59099;48.806;9.160;2022-09-13T16:01:39;28.60;54.00
1301;DHT22;59099;48.806;9.160;2022-09-13T16:04:08;28.50;55.00
1301;DHT22;59099;48.806;9.160;2022-09-13T16:06:34;28.30;55.60
1301;DHT22;59099;48.806;9.160;2022-09-13T16:09:00;28.20;54.20
1301;DHT22;59099;48.806;9.160;2022-09-13T16:11:27;28.20;55.20
1301;DHT22;59099;48.806;9.160;2022-09-13T16:13:54;28.00;55.00
1301;DHT22;59099;48.806;9.160;2022-09-13T16:16:20;27.90;56.60
1301;DHT22;59099;48.806;9.160;2022-09-13T16:18:46;27.90;55.60
1301;DHT22;59099;48.806;9.160;2022-09-13T16:21:11;27.70;56.10
1301;DHT22;59099;48.806;9.160;2022-09-13T16:23:37;27.70;56.00
1301;DHT22;59099;48.806;9.160;2022-09-13T16:26:03;27.60;56.20
1301;DHT22;59099;48.806;9.160;2022-09-13T16:28:32;27.60;56.70
1301;DHT22;59099;48.806;9.160;2022-09-13T16:30:58;27.60;57.10
1301;DHT22;59099;48.806;9.160;2022-09-13T16:33:24;27.50;57.80
1301;DHT22;59099;48.806;9.160;2022-09-13T16:35:49;27.40;58.10
1301;DHT22;59099;48.806;9.160;2022-09-13T16:38:15;27.30;59.60
1301;DHT22;59099;48.806;9.160;2022-09-13T16:40:42;27.20;60.00
1301;DHT22;59099;48.806;9.160;2022-09-13T16:43:09;27.20;61.00
1301;DHT22;59099;48.806;9.160;2022-09-13T16:45:38;27.10;62.20
1301;DHT22;59099;48.806;9.160;2022-09-13T16:48:06;27.00;63.60
1301;DHT22;59099;48.806;9.160;2022-09-13T16:50:33;26.80;64.10
1301;DHT22;59099;48.806;9.160;2022-09-13T16:52:59;26.70;65.50
1301;DHT22;59099;48.806;9.160;2022-09-13T16:55:25;26.40;66.70
1301;DHT22;59099;48.806;9.160;2022-09-13T16:57:55;26.10;67.40
1301;DHT22;59099;48.806;9.160;2022-09-13T17:00:21;25.90;69.90
1301;DHT22;59099;48.806;9.160;2022-09-13T17:02:49;25.80;70.70
1301;DHT22;59099;48.806;9.160;2022-09-13T17:05:14;25.60;72.30
1301;DHT22;59099;48.806;9.160;2022-09-13T17:07:40;25.50;73.30
1301;DHT22;59099;48.806;9.160;2022-09-13T17:10:07;25.30;73.50
1301;DHT22;59099;48.806;9.160;2022-09-13T17:12:33;25.20;74.20
1301;DHT22;59099;48.806;9.160;2022-09-13T17:14:59;25.00;75.10
1301;DHT22;59099;48.806;9.160;2022-09-13T17:17:25;24.90;75.60
1301;DHT22;59099;48.806;9.160;2022-09-13T17:19:51;24.70;76.40
1301;DHT22;59099;48.806;9.160;2022-09-13T17:22:17;24.60;78.10
1301;DHT22;59099;48.806;9.160;2022-09-13T17:24:43;24.30;79.30
1301;DHT22;59099;48.806;9.160;2022-09-13T17:27:09;24.20;80.10
1301;DHT22;59099;48.806;9.160;2022-09-13T17:29:34;24.10;80.90
1301;DHT22;59099;48.806;9.160;2022-09-13T17:32:02;24.00;81.10
1301;DHT22;59099;48.806;9.160;2022-09-13T17:34:28;23.90;82.80
1301;DHT22;59099;48.806;9.160;2022-09-13T17:36:55;23.80;83.90
1301;DHT22;59099;48.806;9.160;2022-09-13T17:39:24;23.80;84.90
1301;DHT22;59099;48.806;9.160;2022-09-13T17:41:50;23.70;85.50
1301;DHT22;59099;48.806;9.160;2022-09-13T17:44:16;23.60;86.10
1301;DHT22;59099;48.806;9.160;2022-09-13T17:46:42;23.50;87.30
1301;DHT22;59099;48.806;9.160;2022-09-13T17:49:08;23.50;87.90
1301;DHT22;59099;48.806;9.160;2022-09-13T17:51:34;23.40;89.10
1301;DHT22;59099;48.806;9.160;2022-09-13T17:54:05;23.40;90.00
1301;DHT22;59099;48.806;9.160;2022-09-13T17:56:33;23.20;90.30
1301;DHT22;59099;48.806;9.160;2022-09-13T17:59:19;23.20;90.60
1301;DHT22;59099;48.806;9.160;2022-09-13T18:01:48;23.00;91.10
1301;DHT22;59099;48.806;9.160;2022-09-13T18:04:16;22.70;91.70
1301;DHT22;59099;48.806;9.160;2022-09-13T18:06:42;22.70;92.10
1301;DHT22;59099;48.806;9.160;2022-09-13T18:09:13;22.60;92.20
1301;DHT22;59099;48.806;9.160;2022-09-13T18:11:43;22.60;92.50
1301;DHT22;59099;48.806;9.160;2022-09-13T18:14:11;22.50;93.00
1301;DHT22;59099;48.806;9.160;2022-09-13T18:16:38;22.40;93.20
1301;DHT22;59099;48.806;9.160;2022-09-13T18:19:04;22.30;93.80
1301;DHT22;59099;48.806;9.160;2022-09-13T18:25:00;22.20;95.00
1301;DHT22;59099;48.806;9.160;2022-09-13T18:28:00;22.10;95.20
1301;DHT22;59099;48.806;9.160;2022-09-13T18:33:38;22.10;96.40
1301;DHT22;59099;48.806;9.160;2022-09-13T18:36:12;21.90;97.20
1301;DHT22;59099;48.806;9.160;2022-09-13T18:38:44;21.70;97.30
1301;DHT22;59099;48.806;9.160;2022-09-13T18:43:39;21.60;98.80
1301;DHT22;59099;48.806;9.160;2022-09-13T18:46:07;21.50;99.20
1301;DHT22;59099;48.806;9.160;2022-09-13T18:48:38;21.40;99.80
1301;DHT22;59099;48.806;9.160;2022-09-13T18:51:08;21.40;99.90
1301;DHT22;59099;48.806;9.160;2022-09-13T18:53:34;21.20;99.90
1301;DHT22;59099;48.806;9.160;2022-09-13T18:56:01;21.10;99.90
1301;DHT22;59099;48.806;9.160;2022-09-13T18:58:32;21.20;99.90
1301;DHT22;59099;48.806;9.160;2022-09-13T19:03:30;21.00;99.90
1301;DHT22;59099;48.806;9.160;2022-09-13T19:06:17;20.90;99.90
1301;DHT22;59099;48.806;9.160;2022-09-13T19:08:44;20.80;99.90
1301;DHT22;59099;48.806;9.160;2022-09-13T19:11:10;20.90;99.90
1301;DHT22;59099;48.806;9.160;2022-09-13T19:13:37;20.70;99.90
1301;DHT22;59099;48.806;9.160;2022-09-13T19:16:08;20.70;99.90
1301;DHT22;59099;48.806;9.160;2022-09-13T19:18:36;20.70;99.90
1301;DHT22;59099;48.806;9.160;2022-09-13T19:21:09;20.70;99.90
1301;DHT22;59099;48.806;9.160;2022-09-13T19:23:38;20.80;99.90
1301;DHT22;59099;48.806;9.160;2022-09-13T19:26:09;20.80;99.90
1301;DHT22;59099;48.806;9.160;2022-09-13T19:28:43;20.60;99.90
1301;DHT22;59099;48.806;9.160;2022-09-13T19:31:11;20.60;99.90
1301;DHT22;59099;48.806;9.160;2022-09-13T19:33:38;20.60;99.90
1301;DHT22;59099;48.806;9.160;2022-09-13T19:36:19;20.60;99.90
1301;DHT22;59099;48.806;9.160;2022-09-13T19:38:47;20.50;99.90
1301;DHT22;59099;48.806;9.160;2022-09-13T19:41:14;20.50;99.90
1301;DHT22;59099;48.806;9.160;2022-09-13T19:43:43;20.50;99.90
1301;DHT22;59099;48.806;9.160;2022-09-13T19:46:14;20.50;99.90
1301;DHT22;59099;48.806;9.160;2022-09-13T19:48:45;20.50;99.90
1301;DHT22;59099;48.806;9.160;2022-09-13T19:51:13;20.50;99.90
1301;DHT22;59099;48.806;9.160;2022-09-13T19:53:41;20.60;99.90
1301;DHT22;59099;48.806;9.160;2022-09-13T19:56:08;20.40;99.90
1301;DHT22;59099;48.806;9.160;2022-09-13T19:58:35;20.30;99.90
1301;DHT22;59099;48.806;9.160;2022-09-13T20:01:09;20.30;99.90